Time;durP1;ratioP1;P1;durP2;ratioP2;P2;SDS_P1;SDS_P2;PMS_P1;PMS_P2;Temp;Humidity;BMP_temperature;BMP_pressure;BME280_temperature;BME280_humidity;BME280_pressure;Samples;Min_cycle;Max_cycle;Signal;HPM_P1;HPM_P2
2024/04/16 00:01:52;;;;;;;3.13;2.10;;;;;;;20.11;57.46;96660.03;5441251;26;20230;-26
2024/04/16 00:04:19;;;;;;;3.00;1.70;;;;;;;20.06;56.97;96656.50;5444403;26;20695;-29
2024/04/16 00:06:46;;;;;;;1.60;1.50;;;;;;;20.09;57.11;96669.31;5430938;26;20235;-29
2024/04/16 00:09:12;;;;;;;1.93;1.60;;;;;;;20.10;57.15;96675.31;5424130;26;20281;-27
2024/04/16 00:11:39;;;;;;;2.90;1.60;;;;;;;20.11;57.51;96675.34;5421757;26;20273;-28
2024/04/16 00:14:06;;;;;;;2.83;1.70;;;;;;;20.11;57.35;96667.69;5437647;26;20284;-28
2024/04/16 00:16:32;;;;;;;1.70;1.50;;;;;;;20.11;57.60;96647.28;5430308;26;20268;-24
2024/04/16 00:18:59;;;;;;;1.87;1.77;;;;;;;20.12;57.11;96640.47;5435709;26;20641;-28
2024/04/16 00:21:26;;;;;;;2.40;1.40;;;;;;;20.12;57.63;96627.72;5428128;26;20268;-27
2024/04/16 00:23:52;;;;;;;1.80;1.50;;;;;;;20.11;57.27;96637.06;5421867;26;20234;-26
2024/04/16 00:26:19;;;;;;;2.90;1.70;;;;;;;20.11;57.57;96648.94;5419643;26;20231;-37
2024/04/16 00:28:46;;;;;;;1.70;1.60;;;;;;;20.02;57.27;96644.53;5436888;26;20578;-28
2024/04/16 00:31:13;;;;;;;3.40;1.50;;;;;;;20.11;57.33;96656.59;5442440;26;20348;-28
2024/04/16 00:33:39;;;;;;;1.70;1.50;;;;;;;20.09;57.57;96651.47;5443007;26;20318;-38
2024/04/16 00:36:06;;;;;;;1.77;1.37;;;;;;;20.10;57.24;96654.91;5418116;26;20235;-37
2024/04/16 00:38:33;;;;;;;1.87;1.60;;;;;;;20.10;57.28;96640.44;5431935;26;20230;-27
2024/04/16 00:40:59;;;;;;;1.40;1.23;;;;;;;20.08;57.41;96642.09;5428159;26;20242;-28
2024/04/16 00:43:26;;;;;;;1.53;1.40;;;;;;;20.08;57.19;96634.47;5429106;26;20241;-27
2024/04/16 00:45:54;;;;;;;1.50;1.40;;;;;;;20.10;57.32;96637.03;5441473;26;20276;-27
2024/04/16 00:48:23;;;;;;;3.00;1.67;;;;;;;20.10;57.02;96620.03;5428842;26;20237;-32
2024/04/16 00:50:51;;;;;;;2.63;1.70;;;;;;;20.09;56.98;96610.66;5433105;26;20737;-27
2024/04/16 00:53:18;;;;;;;1.60;1.43;;;;;;;20.04;57.44;96602.03;5406795;26;20246;-28
2024/04/16 00:55:45;;;;;;;1.97;1.40;;;;;;;20.11;57.64;96615.78;5449494;26;20654;-26
2024/04/16 00:58:12;;;;;;;2.47;1.60;;;;;;;20.07;57.16;96616.56;5432987;26;20222;-26
2024/04/16 01:00:39;;;;;;;1.90;1.57;;;;;;;20.11;57.06;96620.91;5431522;26;20277;-36
2024/04/16 01:03:05;;;;;;;1.87;1.50;;;;;;;20.12;57.38;96614.97;5448892;26;20234;-26
2024/04/16 01:05:32;;;;;;;1.77;1.40;;;;;;;20.10;56.98;96614.09;5444369;26;20826;-26
2024/04/16 01:07:59;;;;;;;2.33;1.57;;;;;;;20.08;56.83;96618.28;5395818;26;20226;-27
2024/04/16 01:10:26;;;;;;;3.33;1.70;;;;;;;20.11;57.27;96616.66;5414095;26;20276;-30
2024/04/16 01:12:53;;;;;;;1.57;1.47;;;;;;;20.10;57.40;96616.63;5430787;26;20601;-26
2024/04/16 01:15:19;;;;;;;1.80;1.40;;;;;;;20.02;57.06;96596.06;5429224;26;20887;-28
2024/04/16 01:17:46;;;;;;;1.47;1.37;;;;;;;20.11;57.12;96609.00;5433302;26;20230;-28
2024/04/16 01:20:13;;;;;;;2.27;1.63;;;;;;;20.09;57.05;96594.50;5401709;26;20235;-28
2024/04/16 01:22:46;;;;;;;2.83;1.60;;;;;;;20.08;56.94;96593.66;5426902;26;20697;-29
2024/04/16 01:25:13;;;;;;;1.43;1.33;;;;;;;20.11;57.41;96600.50;5425643;26;20233;-29
2024/04/16 01:27:40;;;;;;;1.53;1.43;;;;;;;20.11;57.47;96596.25;5438753;26;20238;-26
2024/04/16 01:30:07;;;;;;;2.00;1.50;;;;;;;20.11;57.49;96596.25;5436693;26;20705;-30
2024/04/16 01:32:33;;;;;;;1.70;1.60;;;;;;;20.11;57.47;96597.94;5433302;26;20630;-31
2024/04/16 01:35:22;;;;;;;2.03;1.30;;;;;;;20.12;57.07;96597.09;5427128;26;20234;-35
2024/04/16 01:37:48;;;;;;;1.97;1.40;;;;;;;20.13;57.35;96581.03;5437235;26;20722;-28
2024/04/16 01:40:15;;;;;;;1.57;1.30;;;;;;;20.10;56.80;96584.31;5431697;26;20262;-29
2024/04/16 01:42:42;;;;;;;1.57;1.40;;;;;;;20.12;56.93;96604.75;5422719;26;20656;-30
2024/04/16 01:45:09;;;;;;;1.67;1.40;;;;;;;20.12;57.20;96592.00;5424884;26;20265;-27
2024/04/16 01:47:35;;;;;;;1.50;1.40;;;;;;;20.11;57.09;96593.72;5437690;26;20268;-28
2024/04/16 01:50:02;;;;;;;1.50;1.40;;;;;;;20.12;56.75;96594.53;5431184;26;20265;-28
2024/04/16 01:52:29;;;;;;;1.70;1.40;;;;;;;20.12;57.09;96599.66;5427513;26;20830;-31
2024/04/16 01:54:56;;;;;;;1.30;1.20;;;;;;;20.08;57.16;96601.31;5430890;26;20242;-26
2024/04/16 01:57:22;;;;;;;1.30;1.20;;;;;;;20.10;56.64;96601.34;5416287;26;20273;-27
2024/04/16 01:59:50;;;;;;;1.43;1.33;;;;;;;20.09;57.30;96592.81;5429846;26;20276;-26
2024/04/16 02:02:17;;;;;;;1.87;1.57;;;;;;;20.11;56.85;96603.03;5435344;26;20361;-25
2024/04/16 02:04:44;;;;;;;1.47;1.37;;;;;;;20.12;57.33;96614.97;5431030;26;20235;-26
2024/04/16 02:07:11;;;;;;;1.50;1.40;;;;;;;20.13;57.25;96609.06;5440166;26;20234;-28
2024/04/16 02:09:38;;;;;;;1.43;1.27;;;;;;;20.12;57.51;96595.41;5442391;26;20677;-29
2024/04/16 02:12:05;;;;;;;2.77;1.60;;;;;;;20.11;56.76;96609.00;5430537;26;20269;-28
2024/04/16 02:14:31;;;;;;;1.80;1.33;;;;;;;20.11;56.91;96616.66;5425652;26;20253;-26
2024/04/16 02:16:58;;;;;;;2.60;1.30;;;;;;;20.11;56.86;96605.59;5433807;26;20230;-30
2024/04/16 02:19:24;;;;;;;2.10;1.53;;;;;;;20.11;57.22;96585.19;5426126;26;20229;-28
2024/04/16 02:21:51;;;;;;;1.57;1.30;;;;;;;20.12;56.74;96571.59;5430833;26;20729;-27
2024/04/16 02:24:18;;;;;;;1.50;1.40;;;;;;;20.10;57.20;96574.13;5431258;26;20312;-30
2024/04/16 02:26:45;;;;;;;1.57;1.30;;;;;;;20.10;56.68;96589.41;5436226;26;20269;-32
2024/04/16 02:29:11;;;;;;;1.30;1.20;;;;;;;20.10;56.80;96594.53;5443678;26;20230;-28
2024/04/16 02:31:38;;;;;;;3.00;1.50;;;;;;;20.10;56.98;96588.56;5424147;26;20311;-30
2024/04/16 02:34:05;;;;;;;2.97;1.40;;;;;;;20.10;57.15;96596.22;5448264;26;20246;-26
2024/04/16 02:36:32;;;;;;;1.47;1.37;;;;;;;20.08;57.25;96592.78;5448480;26;20226;-29
2024/04/16 02:38:58;;;;;;;1.53;1.30;;;;;;;20.08;57.00;96580.91;5429862;26;20246;-29
2024/04/16 02:41:25;;;;;;;1.37;1.30;;;;;;;20.09;57.02;96587.72;5423939;26;20269;-27
2024/04/16 02:43:52;;;;;;;1.40;1.30;;;;;;;20.11;56.79;96587.75;5433595;26;20235;-29
2024/04/16 02:46:18;;;;;;;1.33;1.23;;;;;;;20.10;56.70;96581.75;5426631;26;20238;-27
2024/04/16 02:48:45;;;;;;;1.30;1.20;;;;;;;20.10;56.85;96586.03;5427208;26;20278;-32
2024/04/16 02:51:13;;;;;;;1.50;1.40;;;;;;;20.11;56.53;96590.28;5432161;26;20230;-27
2024/04/16 02:53:40;;;;;;;1.30;1.20;;;;;;;20.10;56.52;96566.47;5432890;26;20337;-38
2024/04/16 02:56:07;;;;;;;1.30;1.20;;;;;;;20.10;56.77;96560.53;5431704;26;20261;-28
2024/04/16 02:58:33;;;;;;;1.47;1.33;;;;;;;20.11;57.13;96575.84;5443001;26;20270;-32
2024/04/16 03:01:06;;;;;;;1.50;1.40;;;;;;;20.08;56.60;96560.50;5426627;26;20280;-28
2024/04/16 03:03:36;;;;;;;1.67;1.40;;;;;;;20.10;56.69;96560.53;5426199;26;20317;-26
2024/04/16 03:06:03;;;;;;;1.47;1.37;;;;;;;20.08;56.49;96565.59;5423167;26;20277;-30
2024/04/16 03:08:30;;;;;;;1.63;1.30;;;;;;;20.10;56.69;96580.94;5432536;26;20229;-33
2024/04/16 03:11:00;;;;;;;1.40;1.30;;;;;;;20.08;56.77;96577.47;5432224;26;20229;-27
2024/04/16 03:13:27;;;;;;;1.20;1.20;;;;;;;20.07;56.78;96566.41;5426201;26;20233;-28
2024/04/16 03:15:53;;;;;;;1.60;1.20;;;;;;;20.07;57.22;96556.19;5428097;26;20234;-26
2024/04/16 03:18:20;;;;;;;1.40;1.30;;;;;;;20.08;57.29;96563.03;5433833;26;20268;-29
2024/04/16 03:20:47;;;;;;;1.30;1.20;;;;;;;20.11;56.65;96559.69;5431354;26;20230;-29
2024/04/16 03:23:14;;;;;;;1.30;1.20;;;;;;;20.09;56.89;96548.56;5426867;26;20834;-26
2024/04/16 03:25:42;;;;;;;1.23;1.13;;;;;;;20.10;57.12;96552.88;5441055;26;20229;-27
2024/04/16 03:28:08;;;;;;;1.50;1.40;;;;;;;20.11;57.10;96542.69;5425753;26;20284;-32
2024/04/16 03:30:35;;;;;;;1.30;1.20;;;;;;;20.09;56.49;96548.56;5442578;26;20280;-28
2024/04/16 03:33:02;;;;;;;2.30;1.43;;;;;;;20.02;56.95;96537.41;5423820;26;20233;-27
2024/04/16 03:35:29;;;;;;;1.27;1.17;;;;;;;20.06;57.12;96544.28;5435932;26;21412;-29
2024/04/16 03:37:55;;;;;;;1.40;1.30;;;;;;;20.09;56.99;96551.13;5446221;26;20241;-27
2024/04/16 03:40:22;;;;;;;1.40;1.30;;;;;;;20.10;56.45;96566.47;5426858;26;20260;-30
2024/04/16 03:42:49;;;;;;;2.90;1.20;;;;;;;20.08;56.90;96551.97;5413970;26;20310;-27
2024/04/16 03:45:15;;;;;;;1.50;1.33;;;;;;;20.08;56.91;96555.41;5415922;26;21048;-27
2024/04/16 03:47:42;;;;;;;1.27;1.17;;;;;;;20.11;56.67;96569.88;5426630;26;20235;-29
2024/04/16 03:50:09;;;;;;;1.37;1.27;;;;;;;20.09;56.89;96563.88;5439588;26;20614;-28
2024/04/16 03:52:35;;;;;;;1.30;1.20;;;;;;;20.09;56.55;96574.94;5423649;26;20644;-29
2024/04/16 03:55:04;;;;;;;1.33;1.23;;;;;;;20.10;56.67;96583.47;5442444;26;20229;-30
2024/04/16 03:57:31;;;;;;;1.37;1.27;;;;;;;20.08;56.99;96575.78;5431024;26;20281;-31
2024/04/16 04:02:43;;;;;;;1.90;1.47;;;;;;;20.12;56.93;96563.94;5424115;26;20283;-27
2024/04/16 04:05:10;;;;;;;1.37;1.00;;;;;;;20.10;56.31;96580.94;5428387;26;20241;-25
2024/04/16 04:07:37;;;;;;;1.50;1.40;;;;;;;20.11;57.04;96577.53;5433020;26;20274;-27
2024/04/16 04:10:04;;;;;;;1.20;1.10;;;;;;;20.10;56.91;96586.88;5438285;26;20289;-27
2024/04/16 04:12:31;;;;;;;2.20;1.30;;;;;;;20.10;56.35;96602.16;5432781;26;20818;-26
2024/04/16 04:14:57;;;;;;;1.40;1.30;;;;;;;20.10;56.37;96597.06;5431208;26;20588;-32
2024/04/16 04:17:24;;;;;;;1.40;1.30;;;;;;;20.09;56.32;96591.94;5422965;26;20227;-28
2024/04/16 04:19:51;;;;;;;1.30;1.20;;;;;;;20.08;57.02;96596.19;5430056;26;20308;-29
2024/04/16 04:22:17;;;;;;;2.27;1.43;;;;;;;20.09;57.04;96595.34;5434488;26;20261;-32
2024/04/16 04:24:44;;;;;;;3.63;1.50;;;;;;;20.08;56.81;96596.19;5422637;26;20243;-26
2024/04/16 04:27:11;;;;;;;4.03;1.53;;;;;;;20.07;56.50;96591.91;5433324;26;20318;-27
2024/04/16 04:29:38;;;;;;;1.67;1.30;;;;;;;20.08;56.75;96590.22;5433238;26;20272;-27
2024/04/16 04:32:05;;;;;;;7.40;1.60;;;;;;;20.08;57.20;96596.19;5427331;26;20281;-27
2024/04/16 04:34:32;;;;;;;1.90;1.10;;;;;;;20.09;56.97;96592.81;5422369;26;20282;-30
2024/04/16 04:36:59;;;;;;;2.37;1.20;;;;;;;20.03;56.52;96579.94;5419432;26;20680;-26
2024/04/16 04:39:26;;;;;;;2.03;1.40;;;;;;;20.08;56.41;96593.66;5437794;26;20256;-34
2024/04/16 04:41:53;;;;;;;4.23;1.27;;;;;;;20.03;56.38;96587.59;5428333;26;20823;-28
2024/04/16 04:44:19;;;;;;;2.17;1.10;;;;;;;20.03;56.44;96564.63;5434987;26;20280;-25
2024/04/16 04:46:46;;;;;;;2.07;1.20;;;;;;;20.11;56.24;96577.53;5417804;26;20346;-28
2024/04/16 04:49:13;;;;;;;1.63;1.43;;;;;;;20.15;55.34;96579.34;5434536;26;20237;-29
2024/04/16 04:51:39;;;;;;;1.97;1.50;;;;;;;20.17;55.83;96583.66;5425591;26;20246;-27
2024/04/16 04:54:06;;;;;;;1.60;1.40;;;;;;;20.17;56.34;96586.22;5437473;26;20329;-38
2024/04/16 04:56:33;;;;;;;1.30;1.20;;;;;;;20.18;56.43;96576.84;5439991;26;20266;-30
2024/04/16 04:58:59;;;;;;;2.20;1.40;;;;;;;20.18;56.18;96593.03;5429876;26;20268;-26
2024/04/16 05:01:26;;;;;;;6.10;1.40;;;;;;;20.19;56.42;96593.91;5428568;26;20278;-28
2024/04/16 05:03:53;;;;;;;1.63;1.33;;;;;;;20.18;56.28;96581.94;5423446;26;20281;-27
2024/04/16 05:06:20;;;;;;;1.67;1.30;;;;;;;20.20;56.39;96600.72;5418435;26;20247;-34
2024/04/16 05:08:46;;;;;;;1.47;1.37;;;;;;;20.18;56.34;96603.22;5429489;26;20273;-26
2024/04/16 05:11:13;;;;;;;1.60;1.37;;;;;;;20.19;55.64;96610.03;5426627;26;20229;-38
2024/04/16 05:13:40;;;;;;;3.23;1.30;;;;;;;20.18;56.17;96608.34;5432197;26;20234;-27
2024/04/16 05:16:07;;;;;;;2.23;1.10;;;;;;;20.19;56.33;96616.84;5426910;26;20276;-31
2024/04/16 05:18:33;;;;;;;1.87;1.40;;;;;;;20.19;55.30;96610.03;5437847;26;20264;-28
2024/04/16 05:21:00;;;;;;;1.37;1.27;;;;;;;20.18;55.51;96608.34;5431785;26;20239;-39
2024/04/16 05:23:27;;;;;;;1.87;1.43;;;;;;;20.19;55.64;96601.56;5430508;26;20313;-31
2024/04/16 05:25:54;;;;;;;1.43;1.20;;;;;;;20.18;55.79;96607.47;5438269;26;20578;-29
2024/04/16 05:28:22;;;;;;;1.13;1.07;;;;;;;20.19;55.58;96610.03;5415214;26;20234;-28
2024/04/16 05:30:48;;;;;;;4.73;1.40;;;;;;;20.19;55.69;96629.59;5415266;26;20615;-30
2024/04/16 05:33:15;;;;;;;1.77;1.20;;;;;;;20.18;55.93;96620.22;5433036;26;20598;-28
2024/04/16 05:35:42;;;;;;;1.37;1.27;;;;;;;20.19;56.54;96617.69;5427336;26;20319;-27
2024/04/16 05:38:08;;;;;;;1.47;1.30;;;;;;;20.18;55.95;96615.97;5422456;26;20277;-26
2024/04/16 05:40:35;;;;;;;1.50;1.30;;;;;;;20.19;55.89;96622.78;5425087;26;20241;-29
2024/04/16 05:43:02;;;;;;;1.17;1.07;;;;;;;20.19;56.02;96632.16;5420449;26;20239;-31
2024/04/16 05:45:29;;;;;;;5.73;1.50;;;;;;;20.19;55.72;96622.78;5441417;26;20235;-28
2024/04/16 05:47:55;;;;;;;1.83;1.30;;;;;;;20.18;55.99;96618.53;5450369;26;20260;-26
2024/04/16 05:50:22;;;;;;;1.77;1.20;;;;;;;20.19;55.40;96609.19;5434234;26;20687;-30
2024/04/16 05:52:49;;;;;;;1.97;1.30;;;;;;;20.17;55.84;96613.41;5442587;26;20230;-27
2024/04/16 05:55:16;;;;;;;1.13;1.03;;;;;;;20.18;55.81;96625.31;5431542;26;20239;-29
2024/04/16 05:57:42;;;;;;;1.40;1.30;;;;;;;20.20;55.63;96636.44;5444824;26;20229;-29
2024/04/16 06:00:09;;;;;;;2.30;1.13;;;;;;;20.19;55.98;96627.91;5424431;26;20231;-31
2024/04/16 06:02:36;;;;;;;2.03;1.33;;;;;;;20.20;55.08;96641.53;5429290;26;20291;-28
2024/04/16 06:05:03;;;;;;;2.53;1.33;;;;;;;20.20;55.54;96647.50;5425928;26;20237;-28
2024/04/16 06:07:30;;;;;;;1.77;1.37;;;;;;;20.22;55.68;96639.88;5437333;26;20235;-31
2024/04/16 06:09:56;;;;;;;2.73;1.33;;;;;;;20.22;55.87;96637.31;5444423;26;20234;-27
2024/04/16 06:12:23;;;;;;;1.47;1.20;;;;;;;20.22;55.51;96640.72;5426394;26;20288;-32
2024/04/16 06:14:50;;;;;;;1.77;1.30;;;;;;;20.22;55.99;96647.53;5436830;26;20692;-29
2024/04/16 06:17:16;;;;;;;2.20;1.27;;;;;;;20.22;55.50;96644.97;5432737;26;20231;-28
2024/04/16 06:19:46;;;;;;;1.97;1.30;;;;;;;20.19;55.74;96648.31;5433794;26;20281;-26
2024/04/16 06:22:12;;;;;;;2.37;1.50;;;;;;;20.21;54.43;96635.59;5417103;26;20703;-27
2024/04/16 06:24:39;;;;;;;1.77;1.67;;;;;;;20.19;50.82;96647.47;5429647;26;20271;-32
2024/04/16 06:27:06;;;;;;;5.10;1.80;;;;;;;20.18;51.39;96638.06;5414783;26;20242;-38
2024/04/16 06:29:33;;;;;;;4.80;1.60;;;;;;;20.17;52.96;96649.13;5429359;26;20607;-26
2024/04/16 06:31:59;;;;;;;4.50;2.10;;;;;;;20.10;53.54;96652.34;5420688;26;20619;-28
2024/04/16 06:34:26;;;;;;;1.77;1.50;;;;;;;20.18;53.78;96661.91;5426298;26;20250;-26
2024/04/16 06:36:53;;;;;;;1.73;1.50;;;;;;;20.16;53.80;96663.53;5445759;26;20316;-35
2024/04/16 06:39:19;;;;;;;3.80;1.57;;;;;;;20.16;54.62;96657.59;5421222;26;20249;-27
2024/04/16 06:41:46;;;;;;;2.17;1.40;;;;;;;20.15;54.74;96655.88;5415576;26;20230;-27
2024/04/16 06:44:13;;;;;;;3.17;1.83;;;;;;;20.15;55.01;96645.66;5428845;26;20833;-28
2024/04/16 06:46:40;;;;;;;1.83;1.63;;;;;;;20.15;54.63;96643.09;5435205;26;20266;-33
2024/04/16 06:49:07;;;;;;;2.23;1.60;;;;;;;20.17;54.69;96638.91;5428291;26;20959;-27
2024/04/16 06:51:43;;;;;;;2.70;1.60;;;;;;;20.19;55.50;96644.91;5424889;26;20339;-30
2024/04/16 06:54:10;;;;;;;3.63;1.80;;;;;;;20.19;55.17;96629.59;5434245;26;20321;-28
2024/04/16 06:56:37;;;;;;;4.43;1.50;;;;;;;20.20;54.91;96638.97;5441400;26;20261;-25
2024/04/16 06:59:03;;;;;;;3.53;1.60;;;;;;;20.20;54.86;96634.75;5433384;26;20227;-29
2024/04/16 07:01:30;;;;;;;4.83;1.63;;;;;;;20.19;55.55;96622.78;5437171;26;20234;-27
2024/04/16 07:03:59;;;;;;;6.37;1.97;;;;;;;20.20;55.04;96629.66;5413903;26;20818;-26
2024/04/16 07:06:26;;;;;;;7.40;2.17;;;;;;;20.20;55.12;96619.44;5422716;26;20235;-28
2024/04/16 07:08:53;;;;;;;4.57;2.00;;;;;;;20.20;55.63;96624.53;5414927;26;20226;-30
2024/04/16 07:11:20;;;;;;;3.57;1.83;;;;;;;20.20;55.69;96624.53;5432963;26;20336;-27
2024/04/16 07:13:46;;;;;;;4.80;1.90;;;;;;;20.20;55.64;96619.44;5416339;26;20269;-27
2024/04/16 07:16:13;;;;;;;9.07;2.23;;;;;;;20.19;55.72;96615.13;5418877;26;20273;-28
2024/04/16 07:18:40;;;;;;;5.73;2.07;;;;;;;20.21;55.34;96621.16;5421338;26;20285;-32
2024/04/16 07:21:07;;;;;;;2.10;1.60;;;;;;;20.22;55.54;96617.75;5425291;26;20834;-27
2024/04/16 07:23:34;;;;;;;4.93;1.90;;;;;;;20.19;55.84;96616.84;5447075;26;20339;-26
2024/04/16 07:26:01;;;;;;;5.10;1.80;;;;;;;20.20;55.50;96623.66;5444428;26;20642;-38
2024/04/16 07:28:32;;;;;;;5.60;1.87;;;;;;;20.19;55.14;96625.34;5418477;26;21006;-35
2024/04/16 07:30:59;;;;;;;3.90;1.70;;;;;;;20.20;54.80;96626.22;5426675;26;20258;-25
2024/04/16 07:33:38;;;;;;;4.03;1.90;;;;;;;20.19;55.46;96611.75;5423732;26;20684;-27
2024/04/16 07:36:08;;;;;;;3.87;2.07;;;;;;;20.16;55.41;96609.97;5427336;26;20281;-35
2024/04/16 07:38:36;;;;;;;7.63;1.97;;;;;;;20.21;55.46;96613.50;5434950;26;20356;-26
2024/04/16 07:41:03;;;;;;;7.13;2.27;;;;;;;20.21;55.78;96603.28;5428285;26;20235;-29
2024/04/16 07:43:29;;;;;;;5.03;2.00;;;;;;;20.22;55.58;96609.25;5428444;26;20269;-31
2024/04/16 07:45:56;;;;;;;5.70;2.17;;;;;;;20.21;55.46;96603.28;5436792;26;20233;-27
2024/04/16 07:48:23;;;;;;;5.37;2.00;;;;;;;20.22;55.72;96594.78;5423944;26;20231;-26
2024/04/16 07:50:50;;;;;;;2.23;1.60;;;;;;;20.20;55.35;96587.94;5443882;26;20668;-29
2024/04/16 07:53:16;;;;;;;4.13;1.83;;;;;;;20.22;55.77;96594.78;5424962;26;20233;-28
2024/04/16 07:55:43;;;;;;;3.00;1.80;;;;;;;20.20;55.22;96586.28;5416162;26;20235;-32
2024/04/16 07:58:10;;;;;;;5.10;2.10;;;;;;;20.21;55.07;96595.63;5433734;26;20245;-26
2024/04/16 08:00:37;;;;;;;3.60;1.77;;;;;;;20.22;55.61;96596.50;5440093;26;20310;-31
2024/04/16 08:03:04;;;;;;;6.57;1.90;;;;;;;20.20;55.86;96582.84;5424585;26;20289;-33
2024/04/16 08:05:31;;;;;;;2.63;1.97;;;;;;;20.20;56.00;96587.94;5426505;26;20230;-27
2024/04/16 08:07:57;;;;;;;13.00;1.90;;;;;;;20.20;55.33;96590.50;5424489;26;20268;-27
2024/04/16 08:10:24;;;;;;;3.87;1.90;;;;;;;20.21;55.36;96587.09;5441975;26;20225;-28
2024/04/16 08:12:51;;;;;;;3.70;1.53;;;;;;;20.21;55.35;96590.53;5424302;26;20243;-30
2024/04/16 08:15:17;;;;;;;3.73;1.73;;;;;;;20.21;55.33;96595.63;5423749;26;20226;-27
2024/04/16 08:17:44;;;;;;;5.50;2.23;;;;;;;20.22;55.90;96594.78;5422541;26;20780;-27
2024/04/16 08:20:11;;;;;;;4.13;1.63;;;;;;;20.23;55.73;96588.88;5415926;26;20234;-29
2024/04/16 08:22:41;;;;;;;3.27;1.80;;;;;;;20.23;56.01;96586.34;5427712;26;20270;-36
2024/04/16 08:25:08;;;;;;;2.70;1.70;;;;;;;20.22;55.40;96589.69;5417461;26;20273;-26
2024/04/16 08:27:35;;;;;;;4.63;1.80;;;;;;;20.23;56.23;96595.66;5417149;26;20516;-26
2024/04/16 08:30:02;;;;;;;3.00;1.80;;;;;;;20.22;55.63;96593.97;5414671;26;20808;-27
2024/04/16 08:32:28;;;;;;;2.60;1.80;;;;;;;20.23;55.43;96593.13;5427701;26;20234;-30
2024/04/16 08:34:55;;;;;;;6.07;2.10;;;;;;;20.22;55.51;96596.50;5414449;26;20821;-28
2024/04/16 08:37:22;;;;;;;2.77;1.67;;;;;;;20.22;55.45;96596.50;5422375;26;20234;-29
2024/04/16 08:39:49;;;;;;;1.93;1.63;;;;;;;20.20;55.52;96587.94;5415549;26;20339;-28
2024/04/16 08:42:15;;;;;;;2.90;1.47;;;;;;;20.18;55.59;96579.41;5416257;26;20226;-26
2024/04/16 08:44:42;;;;;;;3.40;1.90;;;;;;;20.21;56.04;96595.63;5388439;26;20269;-29
2024/04/16 08:47:09;;;;;;;2.47;1.50;;;;;;;20.20;56.06;96593.94;5434635;26;20230;-26
2024/04/16 08:49:35;;;;;;;3.03;1.73;;;;;;;20.22;55.80;96588.84;5432026;26;20321;-26
2024/04/16 08:52:05;;;;;;;6.30;1.90;;;;;;;20.22;55.85;96581.19;5434595;26;21118;-27
2024/04/16 08:54:32;;;;;;;4.80;1.77;;;;;;;20.22;55.62;96583.75;5422969;26;20237;-26
2024/04/16 08:56:58;;;;;;;2.27;1.60;;;;;;;20.23;56.05;96586.34;5400677;26;20324;-26
2024/04/16 08:59:25;;;;;;;3.17;1.60;;;;;;;20.25;55.79;96588.91;5424221;26;20249;-30
2024/04/16 09:01:52;;;;;;;2.80;1.80;;;;;;;20.24;55.59;96585.50;5404364;26;20227;-26
2024/04/16 09:04:19;;;;;;;3.53;1.83;;;;;;;20.25;55.41;96588.91;5414758;26;20293;-29
2024/04/16 09:06:47;;;;;;;4.67;1.97;;;;;;;20.25;56.04;96577.00;5434011;26;20241;-27
2024/04/16 09:09:13;;;;;;;2.40;1.70;;;;;;;20.22;55.79;96578.66;5431427;26;20725;-26
2024/04/16 09:11:40;;;;;;;3.13;1.60;;;;;;;20.23;55.67;96578.69;5427885;26;20331;-27
2024/04/16 09:14:09;;;;;;;4.00;2.07;;;;;;;20.24;55.86;96579.53;5447147;26;20272;-26
2024/04/16 09:16:36;;;;;;;2.03;1.60;;;;;;;20.21;55.86;96577.78;5422794;26;20234;-29
2024/04/16 09:19:10;;;;;;;3.40;1.80;;;;;;;20.21;56.05;96575.22;5425927;26;20249;-30
2024/04/16 09:21:37;;;;;;;3.20;2.13;;;;;;;20.22;55.93;96573.53;5418111;26;20605;-31
2024/04/16 09:24:08;;;;;;;1.60;1.50;;;;;;;20.21;55.88;96579.47;5426041;26;20639;-33
2024/04/16 09:26:35;;;;;;;2.70;1.60;;;;;;;20.21;55.47;96579.47;5425885;26;20227;-26
2024/04/16 09:29:03;;;;;;;3.83;1.80;;;;;;;20.21;55.56;96577.78;5435267;26;20242;-27
2024/04/16 09:31:29;;;;;;;4.60;1.70;;;;;;;20.23;55.83;96578.69;5430190;26;20230;-29
2024/04/16 09:34:06;;;;;;;4.37;1.80;;;;;;;20.22;55.51;96579.50;5419768;26;20238;-36
2024/04/16 09:36:33;;;;;;;2.20;1.80;;;;;;;20.23;56.06;96571.03;5435217;26;20263;-27
2024/04/16 09:39:00;;;;;;;5.23;1.87;;;;;;;20.24;55.86;96575.28;5435507;26;20233;-31
2024/04/16 09:41:30;;;;;;;1.73;1.60;;;;;;;20.24;55.74;96572.75;5428740;26;20226;-30
2024/04/16 09:43:56;;;;;;;5.37;1.90;;;;;;;20.23;56.10;96565.06;5436974;26;20268;-33
2024/04/16 09:46:23;;;;;;;2.83;1.80;;;;;;;20.20;55.62;96557.34;5404764;26;20235;-29
2024/04/16 09:48:50;;;;;;;2.03;1.73;;;;;;;20.22;55.73;96553.13;5401577;26;20701;-28
2024/04/16 09:51:16;;;;;;;1.80;1.70;;;;;;;20.23;55.70;96559.94;5424350;26;20776;-25
2024/04/16 09:53:43;;;;;;;3.13;1.80;;;;;;;20.20;55.89;96562.44;5433756;26;20289;-28
2024/04/16 09:56:10;;;;;;;1.73;1.43;;;;;;;20.21;55.45;96551.41;5419495;26;20242;-26
2024/04/16 09:58:37;;;;;;;3.80;1.70;;;;;;;20.22;55.88;96565.91;5410381;26;20234;-39
2024/04/16 10:01:04;;;;;;;3.13;1.80;;;;;;;20.22;55.76;96563.34;5429452;26;20644;-27
2024/04/16 10:03:31;;;;;;;3.40;1.90;;;;;;;20.20;55.58;96565.00;5435941;26;20563;-27
2024/04/16 10:05:57;;;;;;;1.93;1.50;;;;;;;20.22;55.88;96569.28;5431061;26;20608;-30
2024/04/16 10:08:25;;;;;;;1.53;1.43;;;;;;;20.21;56.21;96554.81;5430312;26;20331;-37
2024/04/16 10:10:57;;;;;;;1.93;1.67;;;;;;;20.21;56.16;96547.16;5450640;26;20226;-28
2024/04/16 10:13:32;;;;;;;1.97;1.53;;;;;;;20.21;55.75;96547.16;5420457;26;20268;-28
2024/04/16 10:15:59;;;;;;;3.13;1.50;;;;;;;20.21;55.63;96539.50;5395720;26;20269;-27
2024/04/16 10:18:28;;;;;;;2.07;1.60;;;;;;;20.21;56.27;96542.06;5418887;26;20265;-30
2024/04/16 10:20:58;;;;;;;2.67;1.60;;;;;;;20.19;55.73;96530.97;5429354;26;20242;-26
2024/04/16 10:23:28;;;;;;;1.53;1.40;;;;;;;20.20;56.25;96526.72;5433193;26;20737;-29
2024/04/16 10:25:55;;;;;;;1.63;1.50;;;;;;;20.20;56.08;96530.16;5425678;26;20273;-32
2024/04/16 10:28:26;;;;;;;1.63;1.53;;;;;;;20.21;56.13;96529.31;5437520;26;20253;-30
2024/04/16 10:30:59;;;;;;;1.87;1.27;;;;;;;20.21;56.40;96531.00;5416239;26;20309;-26
2024/04/16 10:33:27;;;;;;;2.53;1.70;;;;;;;20.20;56.12;96526.72;5418674;26;20290;-28
2024/04/16 10:35:54;;;;;;;1.70;1.53;;;;;;;20.19;56.28;96523.31;5438639;26;20238;-27
2024/04/16 10:38:21;;;;;;;1.80;1.60;;;;;;;20.20;55.90;96521.63;5417769;26;20231;-28
2024/04/16 10:40:54;;;;;;;1.60;1.50;;;;;;;20.20;55.89;96514.84;5413334;26;20273;-28
2024/04/16 10:43:24;;;;;;;2.37;1.50;;;;;;;20.21;55.65;96516.56;5428914;26;20234;-35
2024/04/16 10:45:51;;;;;;;1.77;1.43;;;;;;;20.21;56.20;96505.47;5434510;26;20238;-32
2024/04/16 10:48:18;;;;;;;2.33;1.60;;;;;;;20.20;55.70;96507.19;5445170;26;20334;-28
2024/04/16 10:50:45;;;;;;;2.60;1.50;;;;;;;20.21;55.74;96505.47;5429810;26;20268;-38
2024/04/16 10:53:18;;;;;;;1.60;1.43;;;;;;;20.22;55.76;96517.44;5420977;26;20269;-31
2024/04/16 10:55:49;;;;;;;1.67;1.40;;;;;;;20.07;56.00;96487.34;5418748;26;20231;-26
2024/04/16 10:58:18;;;;;;;1.90;1.80;;;;;;;20.21;55.11;96506.34;5414725;26;20234;-28
2024/04/16 11:00:45;;;;;;;2.30;1.50;;;;;;;20.20;55.46;96498.66;5424083;26;20238;-27
2024/04/16 11:03:11;;;;;;;1.70;1.60;;;;;;;20.23;55.55;96483.41;5447173;26;20241;-28
2024/04/16 11:05:39;;;;;;;2.03;1.50;;;;;;;20.24;55.46;96477.47;5447110;26;20275;-29
2024/04/16 11:08:07;;;;;;;1.70;1.50;;;;;;;20.21;55.91;96465.53;5423256;26;20246;-27
2024/04/16 11:10:34;;;;;;;2.63;1.60;;;;;;;20.26;55.83;96478.38;5429063;26;20233;-27
2024/04/16 11:13:01;;;;;;;3.37;1.70;;;;;;;20.26;55.93;96475.81;5426289;26;20233;-29
2024/04/16 11:15:34;;;;;;;2.13;1.50;;;;;;;20.19;56.12;96466.34;5425377;26;20238;-27
2024/04/16 11:18:01;;;;;;;2.13;1.70;;;;;;;20.25;55.73;96474.94;5433809;26;20322;-29
2024/04/16 11:20:28;;;;;;;2.37;1.40;;;;;;;20.24;55.97;96472.38;5441579;26;20282;-30
2024/04/16 11:22:56;;;;;;;1.97;1.60;;;;;;;20.24;55.82;96475.78;5427004;26;20243;-26
2024/04/16 11:25:22;;;;;;;1.73;1.63;;;;;;;20.26;56.20;96473.28;5402797;26;20273;-32
2024/04/16 11:27:49;;;;;;;2.57;1.93;;;;;;;20.24;56.04;96470.69;5431846;26;20225;-30
2024/04/16 11:30:16;;;;;;;2.00;1.60;;;;;;;20.18;55.57;96452.72;5426818;26;20620;-38
2024/04/16 11:32:43;;;;;;;1.83;1.53;;;;;;;20.25;55.88;96472.41;5416607;26;20643;-34
2024/04/16 11:35:11;;;;;;;3.27;1.40;;;;;;;20.25;55.70;96457.09;5387925;26;20250;-36
2024/04/16 11:37:38;;;;;;;1.57;1.47;;;;;;;20.23;55.93;96448.56;5422475;26;20246;-33